Time;durP1;ratioP1;P1;durP2;ratioP2;P2;SDS_P1;SDS_P2;PMS_P1;PMS_P2;Temp;Humidity;BMP_temperature;BMP_pressure;BME280_temperature;BME280_humidity;BME280_pressure;Samples;Min_cycle;Max_cycle;Signal;HPM_P1;HPM_P2
2021/12/18 00:02:12;;;;;;;14.80;5.00;;;;;;;;;;5057392;28;20043;-74
2021/12/18 00:04:39;;;;;;;13.13;4.60;;;;;;;;;;5075395;28;20024;-76
2021/12/18 00:07:06;;;;;;;10.73;4.50;;;;;;;;;;5057305;28;20032;-76
2021/12/18 00:09:33;;;;;;;9.45;4.40;;;;;;;;;;5075282;28;20028;-74
2021/12/18 00:12:00;;;;;;;13.95;5.10;;;;;;;;;;5057313;28;20031;-75
2021/12/18 00:14:26;;;;;;;11.52;4.05;;;;;;;;;;5057222;28;20373;-76
2021/12/18 00:16:53;;;;;;;9.25;4.43;;;;;;;;;;5075150;28;20418;-76
2021/12/18 00:19:25;;;;;;;9.32;3.90;;;;;;;;;;5075483;28;20385;-76
2021/12/18 00:21:52;;;;;;;9.80;4.20;;;;;;;;;;5057633;28;20060;-74
2021/12/18 00:24:19;;;;;;;9.68;3.75;;;;;;;;;;5058511;28;20085;-76
2021/12/18 00:26:45;;;;;;;10.07;4.18;;;;;;;;;;5057014;28;20048;-76
2021/12/18 00:29:11;;;;;;;10.95;4.45;;;;;;;;;;5074422;28;20083;-75
2021/12/18 00:31:38;;;;;;;8.98;4.05;;;;;;;;;;5056905;28;20125;-75
2021/12/18 00:34:04;;;;;;;13.35;4.40;;;;;;;;;;5075207;28;20415;-75
2021/12/18 00:36:30;;;;;;;11.20;4.70;;;;;;;;;;5056773;28;20024;-76
2021/12/18 00:38:56;;;;;;;11.60;4.82;;;;;;;;;;5074649;28;20120;-76
2021/12/18 00:44:02;;;;;;;11.00;3.95;;;;;;;;;;5074600;28;20036;-75
2021/12/18 00:46:29;;;;;;;12.05;4.60;;;;;;;;;;5074368;28;20017;-75
2021/12/18 00:48:56;;;;;;;12.30;4.53;;;;;;;;;;5074988;28;20032;-76
2021/12/18 00:51:22;;;;;;;17.45;5.28;;;;;;;;;;5074370;28;20067;-76
2021/12/18 00:53:48;;;;;;;15.05;5.18;;;;;;;;;;5074916;28;20433;-76
2021/12/18 00:56:15;;;;;;;13.23;4.28;;;;;;;;;;5074254;28;20024;-76
2021/12/18 00:58:42;;;;;;;16.77;4.97;;;;;;;;;;5056359;28;20028;-76
2021/12/18 01:01:10;;;;;;;10.75;4.43;;;;;;;;;;5056227;28;20492;-76
2021/12/18 01:03:38;;;;;;;10.73;4.28;;;;;;;;;;5056294;28;20430;-76
2021/12/18 01:06:05;;;;;;;11.70;4.43;;;;;;;;;;5074651;28;20024;-76
2021/12/18 01:08:31;;;;;;;12.00;4.55;;;;;;;;;;5074799;28;20031;-76
2021/12/18 01:11:27;;;;;;;8.77;4.05;;;;;;;;;;5074020;28;20053;-76
2021/12/18 01:16:48;;;;;;;9.48;4.03;;;;;;;;;;5074538;28;20082;-76
2021/12/18 01:24:45;;;;;;;9.50;4.18;;;;;;;;;;5073846;28;20054;-76
2021/12/18 01:27:11;;;;;;;9.20;4.00;;;;;;;;;;5073696;28;20116;-75
2021/12/18 01:29:38;;;;;;;8.52;3.95;;;;;;;;;;5073705;28;20028;-76
2021/12/18 01:32:04;;;;;;;8.77;4.20;;;;;;;;;;5073882;28;20025;-76
2021/12/18 01:34:31;;;;;;;9.77;4.10;;;;;;;;;;5074154;28;20099;-75
2021/12/18 01:36:57;;;;;;;9.48;4.07;;;;;;;;;;5073616;28;20025;-75
2021/12/18 01:39:23;;;;;;;9.50;3.70;;;;;;;;;;5072566;28;20032;-75
2021/12/18 01:52:33;;;;;;;12.27;4.57;;;;;;;;;;5073629;28;20031;-75
2021/12/18 01:54:59;;;;;;;9.80;4.28;;;;;;;;;;5073443;28;20021;-76
2021/12/18 01:57:26;;;;;;;9.77;3.67;;;;;;;;;;5073416;28;20031;-76
2021/12/18 01:59:52;;;;;;;11.68;3.60;;;;;;;;;;5073356;28;20024;-75
2021/12/18 02:02:20;;;;;;;8.63;3.55;;;;;;;;;;5073307;28;20040;-75
2021/12/18 02:04:47;;;;;;;8.30;3.58;;;;;;;;;;5055350;28;20028;-76
2021/12/18 02:07:14;;;;;;;11.98;3.92;;;;;;;;;;5073315;28;20063;-74
2021/12/18 02:12:10;;;;;;;11.32;4.03;;;;;;;;;;5073310;28;20024;-76
2021/12/18 02:20:38;;;;;;;9.27;3.80;;;;;;;;;;5073503;28;20031;-75
2021/12/18 02:23:05;;;;;;;7.60;3.30;;;;;;;;;;5055917;28;20037;-74
2021/12/18 02:25:33;;;;;;;9.93;3.38;;;;;;;;;;5056060;28;20048;-76
2021/12/18 02:28:00;;;;;;;10.25;3.85;;;;;;;;;;5055151;28;20082;-76
2021/12/18 02:30:26;;;;;;;9.02;3.80;;;;;;;;;;5073593;28;20100;-75
2021/12/18 02:32:52;;;;;;;8.88;3.30;;;;;;;;;;5055113;28;20073;-76
2021/12/18 02:35:29;;;;;;;10.38;3.53;;;;;;;;;;5072996;28;20036;-74
2021/12/18 02:38:07;;;;;;;9.57;3.30;;;;;;;;;;5055726;28;20390;-75
2021/12/18 02:43:12;;;;;;;11.13;3.83;;;;;;;;;;5072992;28;20102;-76
2021/12/18 02:45:38;;;;;;;6.30;3.10;;;;;;;;;;5054976;28;20024;-76
2021/12/18 02:48:04;;;;;;;7.50;3.45;;;;;;;;;;5054992;28;20029;-77
2021/12/18 02:50:30;;;;;;;13.43;3.85;;;;;;;;;;5073253;28;20025;-74
2021/12/18 02:52:58;;;;;;;13.80;3.78;;;;;;;;;;5077245;28;20017;-75
2021/12/18 02:55:24;;;;;;;7.93;3.00;;;;;;;;;;5076611;28;20040;-76
2021/12/18 02:57:50;;;;;;;7.75;3.33;;;;;;;;;;5076561;28;20024;-75
2021/12/18 03:00:17;;;;;;;9.75;3.20;;;;;;;;;;5076582;28;20111;-76
2021/12/18 03:02:45;;;;;;;9.20;3.58;;;;;;;;;;5076942;28;20040;-76
2021/12/18 03:05:19;;;;;;;12.23;3.58;;;;;;;;;;5058435;28;20111;-75
2021/12/18 03:07:47;;;;;;;9.80;3.40;;;;;;;;;;5076351;28;20499;-76
2021/12/18 03:23:48;;;;;;;6.47;3.15;;;;;;;;;;5076178;28;20028;-75
2021/12/18 03:26:14;;;;;;;7.22;3.08;;;;;;;;;;5058342;28;20381;-76
2021/12/18 03:28:41;;;;;;;10.63;3.97;;;;;;;;;;5076043;28;20134;-75
2021/12/18 03:31:08;;;;;;;9.02;3.47;;;;;;;;;;5058049;28;20111;-76
2021/12/18 03:33:34;;;;;;;8.45;2.85;;;;;;;;;;5075931;28;20422;-74
2021/12/18 03:36:01;;;;;;;9.77;3.28;;;;;;;;;;5075830;28;20024;-76
2021/12/18 03:38:27;;;;;;;6.63;3.00;;;;;;;;;;5075838;28;20025;-76
2021/12/18 03:40:53;;;;;;;9.90;3.58;;;;;;;;;;5075665;28;20130;-76
2021/12/18 03:43:20;;;;;;;7.30;3.25;;;;;;;;;;5075731;28;20115;-76
2021/12/18 03:45:46;;;;;;;7.78;3.28;;;;;;;;;;5076449;28;20016;-76
2021/12/18 03:48:12;;;;;;;8.70;3.28;;;;;;;;;;5057705;28;20032;-74
2021/12/18 03:50:38;;;;;;;8.75;3.10;;;;;;;;;;5057659;28;20025;-74
2021/12/18 03:53:04;;;;;;;9.43;3.80;;;;;;;;;;5057673;28;20055;-75
2021/12/18 03:55:30;;;;;;;9.68;3.72;;;;;;;;;;5057659;28;20498;-76
2021/12/18 03:57:57;;;;;;;9.50;3.20;;;;;;;;;;5075490;28;20537;-76
2021/12/18 04:00:23;;;;;;;10.27;3.10;;;;;;;;;;5075486;28;20025;-76
2021/12/18 04:02:50;;;;;;;8.60;3.20;;;;;;;;;;5075052;28;20141;-76
2021/12/18 04:05:16;;;;;;;9.75;3.65;;;;;;;;;;5075626;28;20039;-74
2021/12/18 04:07:45;;;;;;;11.45;4.13;;;;;;;;;;5057442;28;20025;-75
2021/12/18 04:10:13;;;;;;;9.70;3.80;;;;;;;;;;5057118;28;20112;-76
2021/12/18 04:12:39;;;;;;;8.55;3.38;;;;;;;;;;5057296;28;20082;-76
2021/12/18 04:15:06;;;;;;;10.60;3.55;;;;;;;;;;5075676;28;20454;-75
2021/12/18 04:17:32;;;;;;;7.97;3.22;;;;;;;;;;5075164;28;20024;-76
2021/12/18 04:19:59;;;;;;;12.82;3.78;;;;;;;;;;5075659;28;20381;-74
2021/12/18 04:22:25;;;;;;;14.32;3.60;;;;;;;;;;5056971;28;20071;-75
2021/12/18 04:24:51;;;;;;;7.75;3.53;;;;;;;;;;5074982;28;20025;-76
2021/12/18 04:27:18;;;;;;;8.57;4.07;;;;;;;;;;5075068;28;20035;-75
2021/12/18 04:29:44;;;;;;;8.13;3.78;;;;;;;;;;5075054;28;20104;-76
2021/12/18 04:32:11;;;;;;;9.05;3.90;;;;;;;;;;5074794;28;20032;-76
2021/12/18 04:34:37;;;;;;;8.23;3.85;;;;;;;;;;5074631;28;20127;-75
2021/12/18 04:37:03;;;;;;;10.07;3.55;;;;;;;;;;5056728;28;20119;-76
2021/12/18 04:39:29;;;;;;;7.40;3.95;;;;;;;;;;5074428;28;20452;-76
2021/12/18 04:41:58;;;;;;;8.57;3.50;;;;;;;;;;5074946;28;20036;-76
2021/12/18 04:44:24;;;;;;;7.90;3.65;;;;;;;;;;5056637;28;20143;-75
2021/12/18 04:46:53;;;;;;;12.85;4.05;;;;;;;;;;5074576;28;20060;-76
2021/12/18 04:49:19;;;;;;;8.57;3.78;;;;;;;;;;5074463;28;20025;-76
2021/12/18 04:51:45;;;;;;;7.18;3.63;;;;;;;;;;5075328;28;20029;-75
2021/12/18 04:54:12;;;;;;;10.07;3.33;;;;;;;;;;5075598;28;20059;-76
2021/12/18 04:56:38;;;;;;;7.95;3.72;;;;;;;;;;5074418;28;20074;-73
2021/12/18 04:59:05;;;;;;;10.40;4.18;;;;;;;;;;5056426;28;20020;-75
2021/12/18 05:01:36;;;;;;;9.13;3.45;;;;;;;;;;5074168;28;20033;-76
2021/12/18 05:04:04;;;;;;;8.70;3.60;;;;;;;;;;5074795;28;20048;-76
2021/12/18 05:06:31;;;;;;;9.60;3.25;;;;;;;;;;5056206;28;20470;-77
2021/12/18 05:08:58;;;;;;;8.65;3.58;;;;;;;;;;5056173;28;20473;-76
2021/12/18 05:11:24;;;;;;;9.85;4.07;;;;;;;;;;5056994;28;20024;-76
2021/12/18 05:13:50;;;;;;;7.75;3.45;;;;;;;;;;5073951;28;20083;-74
2021/12/18 05:16:17;;;;;;;13.60;3.65;;;;;;;;;;5056047;28;20446;-76
2021/12/18 05:18:43;;;;;;;8.23;3.55;;;;;;;;;;5073959;28;20028;-77
2021/12/18 05:21:10;;;;;;;9.23;3.50;;;;;;;;;;5073797;28;20035;-75
2021/12/18 05:23:36;;;;;;;8.68;3.72;;;;;;;;;;5055931;28;20133;-76
2021/12/18 05:26:03;;;;;;;10.30;3.53;;;;;;;;;;5074333;28;20033;-77
2021/12/18 05:28:29;;;;;;;9.88;3.65;;;;;;;;;;5074379;28;20021;-76
2021/12/18 05:30:55;;;;;;;8.23;3.60;;;;;;;;;;5074305;28;20027;-76
2021/12/18 05:33:21;;;;;;;8.98;3.15;;;;;;;;;;5055766;28;20026;-75
2021/12/18 05:35:47;;;;;;;8.90;4.00;;;;;;;;;;5055449;28;20519;-76
2021/12/18 05:38:14;;;;;;;7.50;3.28;;;;;;;;;;5055467;28;20024;-73
2021/12/18 05:40:40;;;;;;;9.75;3.30;;;;;;;;;;5055287;28;20101;-73
2021/12/18 05:43:09;;;;;;;10.23;2.90;;;;;;;;;;5055816;28;20078;-74
2021/12/18 05:45:35;;;;;;;12.18;3.22;;;;;;;;;;5074096;28;20024;-75
2021/12/18 05:48:01;;;;;;;5.70;3.22;;;;;;;;;;5055522;28;20035;-75
2021/12/18 05:50:29;;;;;;;9.00;2.95;;;;;;;;;;5056310;28;20062;-76
2021/12/18 05:52:58;;;;;;;8.25;2.95;;;;;;;;;;5073485;28;20036;-76
2021/12/18 05:55:25;;;;;;;9.82;3.10;;;;;;;;;;5055475;28;20025;-76
2021/12/18 05:57:52;;;;;;;8.38;2.88;;;;;;;;;;5055490;28;20078;-76
2021/12/18 06:00:19;;;;;;;8.60;3.25;;;;;;;;;;5055460;28;20401;-73
2021/12/18 06:02:45;;;;;;;8.63;3.05;;;;;;;;;;5055312;28;20124;-76
2021/12/18 06:05:11;;;;;;;8.50;3.10;;;;;;;;;;5073346;28;20032;-75
2021/12/18 06:07:52;;;;;;;6.72;2.90;;;;;;;;;;5055476;28;20029;-74
2021/12/18 06:10:21;;;;;;;7.97;2.90;;;;;;;;;;5073647;28;20032;-73
2021/12/18 06:12:47;;;;;;;6.93;3.10;;;;;;;;;;5073560;28;20373;-74
2021/12/18 06:15:13;;;;;;;7.40;2.83;;;;;;;;;;5055429;28;20099;-74
2021/12/18 06:17:40;;;;;;;9.75;2.92;;;;;;;;;;5055327;28;20078;-76
2021/12/18 06:20:06;;;;;;;5.90;2.65;;;;;;;;;;5055227;28;20020;-74
2021/12/18 06:22:33;;;;;;;7.93;2.85;;;;;;;;;;5055112;28;20043;-76
2021/12/18 06:24:59;;;;;;;9.15;2.58;;;;;;;;;;5073196;28;20021;-74
2021/12/18 06:27:25;;;;;;;5.72;2.85;;;;;;;;;;5058698;28;20032;-73
2021/12/18 06:29:51;;;;;;;5.43;2.75;;;;;;;;;;5059234;28;20115;-74
2021/12/18 06:32:17;;;;;;;12.50;4.82;;;;;;;;;;5059152;28;20131;-73
2021/12/18 06:34:43;;;;;;;8.13;4.30;;;;;;;;;;5077579;28;20039;-75
2021/12/18 06:37:10;;;;;;;6.63;3.00;;;;;;;;;;5077490;28;20461;-76
2021/12/18 06:39:36;;;;;;;11.00;3.10;;;;;;;;;;5076742;28;20413;-73
2021/12/18 06:42:02;;;;;;;6.55;2.97;;;;;;;;;;5059021;28;20036;-76
2021/12/18 06:44:28;;;;;;;5.85;2.70;;;;;;;;;;5058914;28;20085;-75
2021/12/18 06:46:56;;;;;;;7.95;2.67;;;;;;;;;;5058958;28;20035;-76
2021/12/18 06:49:22;;;;;;;9.82;3.15;;;;;;;;;;5058870;28;20052;-75
2021/12/18 06:51:48;;;;;;;7.07;2.35;;;;;;;;;;5077256;28;20035;-73
2021/12/18 06:54:15;;;;;;;11.27;3.00;;;;;;;;;;5058772;28;20017;-76
2021/12/18 06:56:41;;;;;;;8.02;2.88;;;;;;;;;;5058733;28;20119;-75
2021/12/18 06:59:07;;;;;;;11.43;3.55;;;;;;;;;;5076620;28;20436;-76
2021/12/18 07:01:33;;;;;;;9.00;2.70;;;;;;;;;;5076484;28;20102;-73
2021/12/18 07:04:00;;;;;;;5.97;2.53;;;;;;;;;;5058473;28;20124;-75
2021/12/18 07:06:26;;;;;;;10.77;3.08;;;;;;;;;;5076683;28;20032;-74
2021/12/18 07:08:52;;;;;;;6.05;2.78;;;;;;;;;;5076846;28;20035;-73
2021/12/18 07:11:18;;;;;;;8.05;3.10;;;;;;;;;;5076367;28;20032;-75
2021/12/18 07:13:44;;;;;;;7.28;2.85;;;;;;;;;;5076318;28;20024;-75
2021/12/18 07:16:10;;;;;;;9.25;3.22;;;;;;;;;;5076817;28;20035;-73
2021/12/18 07:18:37;;;;;;;6.68;2.55;;;;;;;;;;5058302;28;20035;-73
2021/12/18 07:21:03;;;;;;;8.35;2.97;;;;;;;;;;5058276;28;20024;-73
2021/12/18 07:23:29;;;;;;;9.23;3.38;;;;;;;;;;5076109;28;20041;-75
2021/12/18 07:25:55;;;;;;;12.02;3.33;;;;;;;;;;5058155;28;20047;-74
2021/12/18 07:28:21;;;;;;;8.80;3.65;;;;;;;;;;5058171;28;20024;-73
2021/12/18 07:30:48;;;;;;;9.43;3.30;;;;;;;;;;5058059;28;20025;-73
2021/12/18 07:33:14;;;;;;;7.32;3.35;;;;;;;;;;5058028;28;20033;-72
2021/12/18 07:35:41;;;;;;;7.35;2.95;;;;;;;;;;5058050;28;20028;-74
2021/12/18 07:38:07;;;;;;;8.60;3.10;;;;;;;;;;5075238;28;20032;-74
2021/12/18 07:40:34;;;;;;;6.18;3.30;;;;;;;;;;5057755;28;20044;-74
2021/12/18 07:43:02;;;;;;;9.43;5.32;;;;;;;;;;5075807;28;20040;-73
2021/12/18 07:45:28;;;;;;;5.90;2.97;;;;;;;;;;5075804;28;20077;-73
2021/12/18 07:47:55;;;;;;;9.55;3.65;;;;;;;;;;5057776;28;20447;-74
2021/12/18 07:50:21;;;;;;;14.07;4.28;;;;;;;;;;5057723;28;20440;-75
2021/12/18 07:52:48;;;;;;;11.18;4.57;;;;;;;;;;5057616;28;20078;-76
2021/12/18 07:55:14;;;;;;;9.32;3.08;;;;;;;;;;5057685;28;20436;-76
2021/12/18 07:57:41;;;;;;;5.32;2.17;;;;;;;;;;5057598;28;20051;-76
2021/12/18 08:00:10;;;;;;;8.93;3.38;;;;;;;;;;5075526;28;20031;-77
2021/12/18 08:02:36;;;;;;;11.00;3.15;;;;;;;;;;5057400;28;20032;-74
2021/12/18 08:05:03;;;;;;;7.65;2.85;;;;;;;;;;5057364;28;20029;-77
2021/12/18 08:07:30;;;;;;;8.65;2.67;;;;;;;;;;5057379;28;20033;-77
2021/12/18 08:09:56;;;;;;;8.23;2.88;;;;;;;;;;5075314;28;20138;-76
2021/12/18 08:12:22;;;;;;;6.57;2.53;;;;;;;;;;5057258;28;20119;-74
2021/12/18 08:14:48;;;;;;;9.55;2.88;;;;;;;;;;5057251;28;20028;-76
2021/12/18 08:17:15;;;;;;;8.63;2.60;;;;;;;;;;5075163;28;20031;-77
2021/12/18 08:19:41;;;;;;;7.30;2.70;;;;;;;;;;5075167;28;20025;-77
2021/12/18 08:22:07;;;;;;;4.90;2.40;;;;;;;;;;5075510;28;20100;-76
2021/12/18 08:24:33;;;;;;;6.97;1.92;;;;;;;;;;5056990;28;20040;-75
2021/12/18 08:26:59;;;;;;;6.32;2.17;;;;;;;;;;5057015;28;20108;-76
2021/12/18 08:29:26;;;;;;;4.85;1.90;;;;;;;;;;5057008;28;20036;-74
2021/12/18 08:31:53;;;;;;;7.07;2.30;;;;;;;;;;5056956;28;20027;-76
2021/12/18 08:34:22;;;;;;;7.32;2.50;;;;;;;;;;5056858;28;20081;-75
2021/12/18 08:36:49;;;;;;;3.97;1.58;;;;;;;;;;5056835;28;20063;-77
2021/12/18 08:39:15;;;;;;;8.35;1.88;;;;;;;;;;5075048;28;20034;-74
2021/12/18 08:41:42;;;;;;;7.82;2.40;;;;;;;;;;5056617;28;20033;-75
2021/12/18 08:44:08;;;;;;;7.53;1.83;;;;;;;;;;5056631;28;20384;-75
2021/12/18 08:46:35;;;;;;;8.07;2.47;;;;;;;;;;5074450;28;20052;-77
2021/12/18 08:49:01;;;;;;;7.63;2.20;;;;;;;;;;5074411;28;20032;-76
2021/12/18 08:51:28;;;;;;;7.85;2.05;;;;;;;;;;5056544;28;20024;-75
2021/12/18 08:53:54;;;;;;;7.05;2.20;;;;;;;;;;5056387;28;20090;-76
2021/12/18 08:56:20;;;;;;;3.90;1.95;;;;;;;;;;5056408;28;20036;-74
2021/12/18 08:58:46;;;;;;;4.78;1.67;;;;;;;;;;5074289;28;20044;-76
2021/12/18 09:01:12;;;;;;;5.93;1.30;;;;;;;;;;5056362;28;20484;-73
2021/12/18 09:03:38;;;;;;;6.15;1.25;;;;;;;;;;5056168;28;20504;-73
2021/12/18 09:06:05;;;;;;;3.33;1.30;;;;;;;;;;5074753;28;20024;-72
2021/12/18 09:08:31;;;;;;;2.60;1.00;;;;;;;;;;5074162;28;20031;-72
2021/12/18 09:10:57;;;;;;;6.70;2.22;;;;;;;;;;5056165;28;20492;-73
2021/12/18 09:13:23;;;;;;;5.55;2.20;;;;;;;;;;5056184;28;20029;-74
2021/12/18 09:15:49;;;;;;;5.18;1.90;;;;;;;;;;5056087;28;20028;-73
2021/12/18 09:18:16;;;;;;;4.15;1.70;;;;;;;;;;5074471;28;20361;-74
2021/12/18 09:20:44;;;;;;;7.70;2.40;;;;;;;;;;5056051;28;20029;-74
2021/12/18 09:23:13;;;;;;;6.35;1.55;;;;;;;;;;5073783;28;20068;-75
2021/12/18 09:25:39;;;;;;;2.47;1.27;;;;;;;;;;5055992;28;20107;-76
2021/12/18 09:28:05;;;;;;;7.47;1.27;;;;;;;;;;5074296;28;20033;-74
2021/12/18 09:30:31;;;;;;;2.45;1.10;;;;;;;;;;5073806;28;20020;-74
2021/12/18 09:32:59;;;;;;;7.15;1.45;;;;;;;;;;5073765;28;20115;-74
2021/12/18 09:35:25;;;;;;;4.55;0.98;;;;;;;;;;5073651;28;20066;-73
2021/12/18 09:37:52;;;;;;;3.60;1.45;;;;;;;;;;5055768;28;20533;-77
2021/12/18 09:40:19;;;;;;;4.45;1.38;;;;;;;;;;5073363;28;20052;-76
2021/12/18 09:42:46;;;;;;;3.45;1.38;;;;;;;;;;5055651;28;20044;-75
2021/12/18 09:45:14;;;;;;;4.20;1.52;;;;;;;;;;5073861;28;20423;-74
2021/12/18 09:47:41;;;;;;;3.17;1.30;;;;;;;;;;5073526;28;20024;-75
2021/12/18 09:50:08;;;;;;;3.85;2.15;;;;;;;;;;5074042;28;20510;-75
2021/12/18 09:52:35;;;;;;;2.95;1.40;;;;;;;;;;5073502;28;20032;-75
2021/12/18 09:55:01;;;;;;;3.13;1.38;;;;;;;;;;5073393;28;20025;-74
2021/12/18 09:57:28;;;;;;;4.47;1.50;;;;;;;;;;5074023;28;20465;-75
2021/12/18 09:59:54;;;;;;;4.22;1.50;;;;;;;;;;5073088;28;20496;-75
2021/12/18 10:02:20;;;;;;;5.53;1.45;;;;;;;;;;5073542;28;20037;-72
2021/12/18 10:04:47;;;;;;;4.20;1.70;;;;;;;;;;5073341;28;20016;-73
2021/12/18 10:07:24;;;;;;;3.83;1.27;;;;;;;;;;5055191;28;20036;-72
2021/12/18 10:09:51;;;;;;;2.92;1.45;;;;;;;;;;5055375;28;20082;-74
2021/12/18 10:12:22;;;;;;;4.55;1.45;;;;;;;;;;5038769;28;20032;-75
2021/12/18 10:14:53;;;;;;;3.83;1.20;;;;;;;;;;5055295;28;20492;-74
2021/12/18 10:17:19;;;;;;;2.72;1.42;;;;;;;;;;5055286;28;20024;-75
2021/12/18 10:19:47;;;;;;;4.25;1.48;;;;;;;;;;5073508;28;20036;-75
2021/12/18 10:22:13;;;;;;;3.28;1.52;;;;;;;;;;5073397;28;20056;-74
2021/12/18 10:24:42;;;;;;;4.63;1.75;;;;;;;;;;5055268;28;20456;-74
2021/12/18 10:27:20;;;;;;;3.30;1.38;;;;;;;;;;5055184;28;20017;-74
2021/12/18 10:29:47;;;;;;;3.10;1.73;;;;;;;;;;5055211;28;20063;-73
2021/12/18 10:32:23;;;;;;;6.15;1.55;;;;;;;;;;5055134;28;20078;-73
2021/12/18 10:34:57;;;;;;;6.65;2.20;;;;;;;;;;5073117;28;20021;-74
2021/12/18 10:37:24;;;;;;;6.05;1.67;;;;;;;;;;5073133;28;20388;-74
2021/12/18 10:39:59;;;;;;;9.50;2.35;;;;;;;;;;5072717;28;20083;-73
2021/12/18 10:42:27;;;;;;;5.97;1.83;;;;;;;;;;5073121;28;20119;-74
2021/12/18 10:45:12;;;;;;;9.60;2.30;;;;;;;;;;5054981;28;20064;-73
2021/12/18 10:47:42;;;;;;;9.98;2.85;;;;;;;;;;5072916;28;20024;-75
2021/12/18 10:50:15;;;;;;;6.47;2.03;;;;;;;;;;5072759;28;20082;-75
2021/12/18 10:52:41;;;;;;;9.55;2.38;;;;;;;;;;5054476;28;20031;-74
2021/12/18 10:55:08;;;;;;;8.68;2.90;;;;;;;;;;5054701;28;20028;-75
2021/12/18 10:57:34;;;;;;;6.75;2.45;;;;;;;;;;5054530;28;20033;-75
2021/12/18 11:00:00;;;;;;;7.50;2.08;;;;;;;;;;5073347;28;20351;-76
2021/12/18 11:02:28;;;;;;;6.38;1.52;;;;;;;;;;5072756;28;20037;-76
2021/12/18 11:05:12;;;;;;;7.82;2.20;;;;;;;;;;5054806;28;20029;-76
2021/12/18 11:07:42;;;;;;;5.82;2.28;;;;;;;;;;5054842;28;20473;-75
2021/12/18 11:10:40;;;;;;;4.60;1.90;;;;;;;;;;5054881;28;20468;-73
2021/12/18 11:15:51;;;;;;;5.13;2.03;;;;;;;;;;5076490;28;20039;-74
2021/12/18 11:18:19;;;;;;;6.13;2.10;;;;;;;;;;5076267;28;20381;-75
2021/12/18 11:20:47;;;;;;;5.10;2.45;;;;;;;;;;5076175;28;20473;-75
2021/12/18 11:23:14;;;;;;;7.10;2.58;;;;;;;;;;5058174;28;20421;-76
2021/12/18 11:25:41;;;;;;;7.50;2.63;;;;;;;;;;5076200;28;20021;-76
2021/12/18 11:28:08;;;;;;;9.10;3.47;;;;;;;;;;5076105;28;20029;-76
2021/12/18 11:30:34;;;;;;;7.80;3.20;;;;;;;;;;5076138;28;20025;-76
2021/12/18 11:33:01;;;;;;;8.02;2.83;;;;;;;;;;5075998;28;20028;-74
2021/12/18 11:35:28;;;;;;;5.70;2.55;;;;;;;;;;5075914;28;20024;-75
2021/12/18 11:37:56;;;;;;;8.57;3.22;;;;;;;;;;5058258;28;20028;-74
2021/12/18 11:40:24;;;;;;;7.70;2.92;;;;;;;;;;5054702;28;20051;-75
2021/12/18 11:42:51;;;;;;;5.43;2.97;;;;;;;;;;5055771;28;20037;-77
2021/12/18 11:45:18;;;;;;;6.85;2.67;;;;;;;;;;5056574;28;20029;-74
2021/12/18 11:47:45;;;;;;;7.57;2.95;;;;;;;;;;5054838;28;20123;-75
2021/12/18 11:50:20;;;;;;;10.02;3.00;;;;;;;;;;5054678;28;20021;-75
2021/12/18 11:52:54;;;;;;;5.88;2.80;;;;;;;;;;5054343;28;20086;-76
2021/12/18 11:55:21;;;;;;;4.80;2.67;;;;;;;;;;5054354;28;20083;-74
2021/12/18 11:57:49;;;;;;;9.15;3.38;;;;;;;;;;5054251;28;20021;-73
2021/12/18 12:00:23;;;;;;;7.18;2.95;;;;;;;;;;5055506;28;20021;-74
2021/12/18 12:02:49;;;;;;;5.45;2.88;;;;;;;;;;5054206;28;20406;-73
2021/12/18 12:05:17;;;;;;;9.15;3.05;;;;;;;;;;5055949;28;20017;-73
2021/12/18 12:07:45;;;;;;;10.68;2.78;;;;;;;;;;5055339;28;20068;-74
2021/12/18 12:10:13;;;;;;;7.78;3.95;;;;;;;;;;5054107;28;20359;-74
2021/12/18 12:12:53;;;;;;;13.18;3.80;;;;;;;;;;5054022;28;20033;-75
2021/12/18 12:15:21;;;;;;;7.55;4.00;;;;;;;;;;5054758;28;20025;-76
2021/12/18 12:18:01;;;;;;;13.20;4.70;;;;;;;;;;5053893;28;20021;-75
2021/12/18 12:20:35;;;;;;;9.10;3.72;;;;;;;;;;5053904;28;20389;-75
2021/12/18 12:23:02;;;;;;;10.73;4.63;;;;;;;;;;5054649;28;20041;-74
2021/12/18 12:25:53;;;;;;;10.38;4.22;;;;;;;;;;5053503;28;20025;-73
2021/12/18 12:28:24;;;;;;;12.15;4.88;;;;;;;;;;5049891;28;20041;-73
2021/12/18 12:30:51;;;;;;;11.23;5.07;;;;;;;;;;5053678;28;20028;-73
2021/12/18 12:33:22;;;;;;;7.93;3.78;;;;;;;;;;5055384;28;20033;-75
2021/12/18 12:35:54;;;;;;;10.13;3.80;;;;;;;;;;5053543;28;20040;-76
2021/12/18 12:38:25;;;;;;;10.07;4.40;;;;;;;;;;5053476;28;20032;-75
2021/12/18 12:40:52;;;;;;;9.32;3.88;;;;;;;;;;5053229;28;20183;-73
2021/12/18 12:43:21;;;;;;;8.50;3.60;;;;;;;;;;5053267;28;20037;-73
2021/12/18 12:45:49;;;;;;;9.20;3.92;;;;;;;;;;5053325;28;20028;-75
2021/12/18 12:48:16;;;;;;;10.35;4.40;;;;;;;;;;5053298;28;20056;-74
2021/12/18 12:50:43;;;;;;;9.30;4.13;;;;;;;;;;5054549;28;20025;-76
2021/12/18 12:53:10;;;;;;;9.27;3.90;;;;;;;;;;5054521;28;20029;-76
2021/12/18 12:55:43;;;;;;;9.45;3.92;;;;;;;;;;5054386;28;20021;-73
2021/12/18 12:58:17;;;;;;;14.02;5.95;;;;;;;;;;5054470;28;20025;-73
2021/12/18 13:00:44;;;;;;;6.95;4.03;;;;;;;;;;5053062;28;20059;-73
2021/12/18 13:03:13;;;;;;;9.75;4.10;;;;;;;;;;5052981;28;20040;-73
2021/12/18 13:05:59;;;;;;;8.63;3.90;;;;;;;;;;5052957;28;20355;-73
2021/12/18 13:08:26;;;;;;;8.10;3.70;;;;;;;;;;5054121;28;20056;-73
2021/12/18 13:10:54;;;;;;;8.63;4.43;;;;;;;;;;5054140;28;20362;-73
2021/12/18 13:13:22;;;;;;;8.05;3.90;;;;;;;;;;5052909;28;20184;-73
2021/12/18 13:15:59;;;;;;;10.05;4.15;;;;;;;;;;5052718;28;20025;-74
2021/12/18 13:18:30;;;;;;;12.50;5.05;;;;;;;;;;5052829;28;20032;-73
2021/12/18 13:20:58;;;;;;;8.68;4.10;;;;;;;;;;5052631;28;20036;-75
2021/12/18 13:23:44;;;;;;;8.55;4.20;;;;;;;;;;5052605;28;20036;-76
2021/12/18 13:26:23;;;;;;;8.30;3.92;;;;;;;;;;5052526;28;20477;-73
2021/12/18 13:28:57;;;;;;;9.07;4.28;;;;;;;;;;5052665;28;20040;-73
2021/12/18 13:31:25;;;;;;;10.25;4.95;;;;;;;;;;5053773;28;20033;-73
2021/12/18 13:34:00;;;;;;;7.60;4.18;;;;;;;;;;5052540;28;20025;-73
2021/12/18 13:36:36;;;;;;;9.38;4.75;;;;;;;;;;5053365;28;20103;-73
2021/12/18 13:39:06;;;;;;;8.60;4.50;;;;;;;;;;5052426;28;20112;-72
2021/12/18 13:41:32;;;;;;;13.52;5.50;;;;;;;;;;5052142;28;20048;-75
2021/12/18 13:43:58;;;;;;;10.50;4.88;;;;;;;;;;5053627;28;20478;-74
2021/12/18 13:46:30;;;;;;;9.75;4.20;;;;;;;;;;5054064;28;20104;-75
2021/12/18 13:48:57;;;;;;;13.27;4.82;;;;;;;;;;5046056;28;20040;-72
2021/12/18 13:51:25;;;;;;;12.98;5.03;;;;;;;;;;5052113;28;20018;-73
2021/12/18 13:54:02;;;;;;;9.32;4.50;;;;;;;;;;5053732;28;20096;-73
2021/12/18 13:56:32;;;;;;;12.00;4.45;;;;;;;;;;5053339;28;20525;-73
2021/12/18 13:58:58;;;;;;;8.48;4.70;;;;;;;;;;5051987;28;20117;-73
2021/12/18 14:01:25;;;;;;;9.43;4.82;;;;;;;;;;5051939;28;20366;-73
2021/12/18 14:03:59;;;;;;;14.35;5.45;;;;;;;;;;5052051;28;20386;-73
2021/12/18 14:06:34;;;;;;;11.55;5.90;;;;;;;;;;5053422;28;20029;-72
2021/12/18 14:09:12;;;;;;;10.65;4.93;;;;;;;;;;5053251;28;20154;-72
2021/12/18 14:11:49;;;;;;;10.68;5.32;;;;;;;;;;5054480;28;20029;-74
2021/12/18 14:14:16;;;;;;;12.20;5.28;;;;;;;;;;5053592;28;20033;-73
2021/12/18 14:16:49;;;;;;;11.00;5.00;;;;;;;;;;5053054;28;20028;-73
2021/12/18 14:19:24;;;;;;;12.23;4.88;;;;;;;;;;5051824;28;20116;-72
2021/12/18 14:21:51;;;;;;;11.10;5.00;;;;;;;;;;5053265;28;20029;-72
2021/12/18 14:24:18;;;;;;;10.15;4.88;;;;;;;;;;5053053;28;20029;-73
2021/12/18 14:26:57;;;;;;;9.85;4.18;;;;;;;;;;5052828;28;20029;-72
2021/12/18 14:29:24;;;;;;;10.75;5.35;;;;;;;;;;5052984;28;20028;-72
2021/12/18 14:31:56;;;;;;;10.27;4.78;;;;;;;;;;5053053;28;20029;-72
2021/12/18 14:34:22;;;;;;;12.85;5.18;;;;;;;;;;5051740;28;20494;-72
2021/12/18 14:36:53;;;;;;;15.73;5.25;;;;;;;;;;5052858;28;20025;-72
2021/12/18 14:39:30;;;;;;;11.55;5.68;;;;;;;;;;5052903;28;20071;-74
2021/12/18 14:42:05;;;;;;;11.60;5.88;;;;;;;;;;5072937;28;20469;-73
2021/12/18 14:44:33;;;;;;;12.02;5.55;;;;;;;;;;5054735;28;20460;-72
2021/12/18 14:47:23;;;;;;;13.55;6.28;;;;;;;;;;5073968;28;20393;-72
2021/12/18 14:49:58;;;;;;;16.02;8.32;;;;;;;;;;5066701;28;20040;-72
2021/12/18 14:52:25;;;;;;;12.48;6.32;;;;;;;;;;5058691;28;20031;-72
2021/12/18 14:54:56;;;;;;;10.75;5.78;;;;;;;;;;5076662;28;20405;-74
2021/12/18 14:57:27;;;;;;;10.65;6.00;;;;;;;;;;5077172;28;20021;-74
2021/12/18 15:00:31;;;;;;;10.93;5.90;;;;;;;;;;5076682;28;20051;-72
2021/12/18 15:03:15;;;;;;;11.55;5.65;;;;;;;;;;4994886;28;20503;-73
2021/12/18 15:05:42;;;;;;;12.18;5.55;;;;;;;;;;4995152;28;20077;-73
2021/12/18 15:08:14;;;;;;;10.60;5.20;;;;;;;;;;5043605;28;20036;-72
2021/12/18 15:10:57;;;;;;;11.68;5.78;;;;;;;;;;5076407;28;20033;-72
2021/12/18 15:13:25;;;;;;;13.02;5.30;;;;;;;;;;5076767;28;20117;-73
2021/12/18 15:16:07;;;;;;;11.68;5.18;;;;;;;;;;5076483;28;20166;-73
2021/12/18 15:18:33;;;;;;;12.27;5.10;;;;;;;;;;5076289;28;20029;-72
2021/12/18 15:21:00;;;;;;;10.52;5.43;;;;;;;;;;5075976;28;20392;-73
2021/12/18 15:23:26;;;;;;;9.25;4.95;;;;;;;;;;5076009;28;20037;-73
2021/12/18 15:25:53;;;;;;;9.85;5.15;;;;;;;;;;5076329;28;20098;-73
2021/12/18 15:28:19;;;;;;;12.88;5.38;;;;;;;;;;5075942;28;20032;-73
2021/12/18 15:30:46;;;;;;;10.27;5.03;;;;;;;;;;5076143;28;20448;-74
2021/12/18 15:33:12;;;;;;;9.57;5.15;;;;;;;;;;5075912;28;20021;-74
2021/12/18 15:35:40;;;;;;;8.68;4.95;;;;;;;;;;5076180;28;20442;-73